sensor_id;sensor_type;location;lat;lon;timestamp;temperature;humidity
14008;DHT22;61651;45.508;12.232;2023-07-13T00:01:17;28.70;99.90
14008;DHT22;61651;45.508;12.232;2023-07-13T00:04:20;28.80;99.90
14008;DHT22;61651;45.508;12.232;2023-07-13T00:07:23;29.00;99.90
14008;DHT22;61651;45.508;12.232;2023-07-13T00:10:27;29.00;99.90
14008;DHT22;61651;45.508;12.232;2023-07-13T00:13:29;29.10;99.90
14008;DHT22;61651;45.508;12.232;2023-07-13T00:16:32;29.00;99.90
14008;DHT22;61651;45.508;12.232;2023-07-13T00:19:34;28.90;99.90
14008;DHT22;61651;45.508;12.232;2023-07-13T00:22:37;28.60;99.90
14008;DHT22;61651;45.508;12.232;2023-07-13T00:25:40;28.50;99.90
14008;DHT22;61651;45.508;12.232;2023-07-13T00:28:43;28.50;99.90
14008;DHT22;61651;45.508;12.232;2023-07-13T00:31:45;28.50;99.90
14008;DHT22;61651;45.508;12.232;2023-07-13T00:34:47;28.50;99.90
14008;DHT22;61651;45.508;12.232;2023-07-13T00:37:49;28.30;99.90
14008;DHT22;61651;45.508;12.232;2023-07-13T00:40:52;28.10;99.90
14008;DHT22;61651;45.508;12.232;2023-07-13T00:43:54;28.10;99.90
14008;DHT22;61651;45.508;12.232;2023-07-13T00:46:56;28.00;99.90
14008;DHT22;61651;45.508;12.232;2023-07-13T00:49:59;28.00;99.90
14008;DHT22;61651;45.508;12.232;2023-07-13T00:53:02;27.90;99.90
14008;DHT22;61651;45.508;12.232;2023-07-13T00:56:05;27.80;99.90
14008;DHT22;61651;45.508;12.232;2023-07-13T00:59:08;27.80;99.90
14008;DHT22;61651;45.508;12.232;2023-07-13T01:02:12;27.80;99.90
14008;DHT22;61651;45.508;12.232;2023-07-13T01:05:18;27.60;99.90
14008;DHT22;61651;45.508;12.232;2023-07-13T01:08:21;27.30;99.90
14008;DHT22;61651;45.508;12.232;2023-07-13T01:11:24;27.00;99.90
14008;DHT22;61651;45.508;12.232;2023-07-13T01:14:28;27.10;99.90
14008;DHT22;61651;45.508;12.232;2023-07-13T01:17:31;27.20;99.90
14008;DHT22;61651;45.508;12.232;2023-07-13T01:20:35;27.20;99.90
14008;DHT22;61651;45.508;12.232;2023-07-13T01:23:39;27.10;99.90
14008;DHT22;61651;45.508;12.232;2023-07-13T01:26:40;27.10;99.90
14008;DHT22;61651;45.508;12.232;2023-07-13T01:29:44;27.10;99.90
14008;DHT22;61651;45.508;12.232;2023-07-13T01:32:48;27.00;99.90
14008;DHT22;61651;45.508;12.232;2023-07-13T01:35:50;27.00;99.90
14008;DHT22;61651;45.508;12.232;2023-07-13T01:38:54;27.10;99.90
14008;DHT22;61651;45.508;12.232;2023-07-13T01:41:55;27.10;99.90
14008;DHT22;61651;45.508;12.232;2023-07-13T01:44:57;27.10;99.90
14008;DHT22;61651;45.508;12.232;2023-07-13T01:48:00;27.10;99.90
14008;DHT22;61651;45.508;12.232;2023-07-13T01:51:02;27.00;99.90
14008;DHT22;61651;45.508;12.232;2023-07-13T01:54:05;27.10;99.90
14008;DHT22;61651;45.508;12.232;2023-07-13T01:57:07;27.10;99.90
14008;DHT22;61651;45.508;12.232;2023-07-13T02:00:10;27.10;99.90
14008;DHT22;61651;45.508;12.232;2023-07-13T02:03:12;27.10;99.90
14008;DHT22;61651;45.508;12.232;2023-07-13T02:06:18;27.10;99.90
14008;DHT22;61651;45.508;12.232;2023-07-13T02:09:22;27.10;99.90
14008;DHT22;61651;45.508;12.232;2023-07-13T02:12:24;27.10;99.90
14008;DHT22;61651;45.508;12.232;2023-07-13T02:15:26;27.00;99.90
14008;DHT22;61651;45.508;12.232;2023-07-13T02:18:28;27.00;99.90
14008;DHT22;61651;45.508;12.232;2023-07-13T02:21:30;27.00;99.90
14008;DHT22;61651;45.508;12.232;2023-07-13T02:24:33;26.90;99.90
14008;DHT22;61651;45.508;12.232;2023-07-13T02:27:35;26.90;99.90
14008;DHT22;61651;45.508;12.232;2023-07-13T02:30:38;26.90;99.90
14008;DHT22;61651;45.508;12.232;2023-07-13T02:33:40;26.90;99.90
14008;DHT22;61651;45.508;12.232;2023-07-13T02:36:42;26.90;99.90
14008;DHT22;61651;45.508;12.232;2023-07-13T02:39:45;26.90;99.90
14008;DHT22;61651;45.508;12.232;2023-07-13T02:42:48;26.90;99.90
14008;DHT22;61651;45.508;12.232;2023-07-13T02:45:50;26.80;99.90
14008;DHT22;61651;45.508;12.232;2023-07-13T02:48:52;26.90;99.90
14008;DHT22;61651;45.508;12.232;2023-07-13T02:51:54;26.80;99.90
14008;DHT22;61651;45.508;12.232;2023-07-13T02:54:58;26.80;99.90
14008;DHT22;61651;45.508;12.232;2023-07-13T02:58:00;26.80;99.90
14008;DHT22;61651;45.508;12.232;2023-07-13T03:01:06;26.80;99.90
14008;DHT22;61651;45.508;12.232;2023-07-13T03:04:08;26.70;99.90
14008;DHT22;61651;45.508;12.232;2023-07-13T03:07:11;26.60;99.90
14008;DHT22;61651;45.508;12.232;2023-07-13T03:10:15;26.60;99.90
14008;DHT22;61651;45.508;12.232;2023-07-13T03:13:18;26.70;99.90
14008;DHT22;61651;45.508;12.232;2023-07-13T03:16:20;26.60;99.90
14008;DHT22;61651;45.508;12.232;2023-07-13T03:19:22;26.50;99.90
14008;DHT22;61651;45.508;12.232;2023-07-13T03:22:24;26.40;99.90
14008;DHT22;61651;45.508;12.232;2023-07-13T03:25:27;26.40;99.90
14008;DHT22;61651;45.508;12.232;2023-07-13T03:28:29;26.50;99.90
14008;DHT22;61651;45.508;12.232;2023-07-13T03:31:34;26.50;99.90
14008;DHT22;61651;45.508;12.232;2023-07-13T03:34:36;26.50;99.90
14008;DHT22;61651;45.508;12.232;2023-07-13T03:37:38;26.40;99.90
14008;DHT22;61651;45.508;12.232;2023-07-13T03:40:44;26.40;99.90
14008;DHT22;61651;45.508;12.232;2023-07-13T03:43:46;26.20;99.90
14008;DHT22;61651;45.508;12.232;2023-07-13T03:46:49;26.10;99.90
14008;DHT22;61651;45.508;12.232;2023-07-13T03:49:51;26.10;99.90
14008;DHT22;61651;45.508;12.232;2023-07-13T03:52:54;26.10;99.90
14008;DHT22;61651;45.508;12.232;2023-07-13T03:55:58;26.10;99.90
14008;DHT22;61651;45.508;12.232;2023-07-13T03:59:00;25.90;99.90
14008;DHT22;61651;45.508;12.232;2023-07-13T04:02:03;26.00;99.90
14008;DHT22;61651;45.508;12.232;2023-07-13T04:05:06;26.10;99.90
14008;DHT22;61651;45.508;12.232;2023-07-13T04:08:08;26.10;99.90
14008;DHT22;61651;45.508;12.232;2023-07-13T04:11:11;26.00;99.90
14008;DHT22;61651;45.508;12.232;2023-07-13T04:14:13;26.10;99.90
14008;DHT22;61651;45.508;12.232;2023-07-13T04:17:15;26.10;99.90
14008;DHT22;61651;45.508;12.232;2023-07-13T04:20:17;26.10;99.90
14008;DHT22;61651;45.508;12.232;2023-07-13T04:23:21;26.10;99.90
14008;DHT22;61651;45.508;12.232;2023-07-13T04:26:25;26.00;99.90
14008;DHT22;61651;45.508;12.232;2023-07-13T04:29:27;26.00;99.90
14008;DHT22;61651;45.508;12.232;2023-07-13T04:32:29;26.10;99.90
14008;DHT22;61651;45.508;12.232;2023-07-13T04:35:31;26.20;99.90
14008;DHT22;61651;45.508;12.232;2023-07-13T04:38:33;26.20;99.90
14008;DHT22;61651;45.508;12.232;2023-07-13T04:41:36;26.20;99.90
14008;DHT22;61651;45.508;12.232;2023-07-13T04:44:38;26.20;99.90
14008;DHT22;61651;45.508;12.232;2023-07-13T04:47:40;26.10;99.90
14008;DHT22;61651;45.508;12.232;2023-07-13T04:50:42;26.10;99.90
14008;DHT22;61651;45.508;12.232;2023-07-13T04:53:44;26.10;99.90
14008;DHT22;61651;45.508;12.232;2023-07-13T04:56:48;26.10;99.90
14008;DHT22;61651;45.508;12.232;2023-07-13T04:59:50;26.20;99.90
14008;DHT22;61651;45.508;12.232;2023-07-13T05:02:53;26.20;99.90
14008;DHT22;61651;45.508;12.232;2023-07-13T05:05:56;26.30;99.90
14008;DHT22;61651;45.508;12.232;2023-07-13T05:08:59;26.30;99.90
14008;DHT22;61651;45.508;12.232;2023-07-13T05:12:02;26.30;99.90
14008;DHT22;61651;45.508;12.232;2023-07-13T05:15:05;26.30;99.90
14008;DHT22;61651;45.508;12.232;2023-07-13T05:18:08;26.40;99.90
14008;DHT22;61651;45.508;12.232;2023-07-13T05:21:10;26.40;99.90
14008;DHT22;61651;45.508;12.232;2023-07-13T05:24:12;26.40;99.90
14008;DHT22;61651;45.508;12.232;2023-07-13T05:27:15;26.40;99.90
14008;DHT22;61651;45.508;12.232;2023-07-13T05:30:18;26.40;99.90
14008;DHT22;61651;45.508;12.232;2023-07-13T05:33:20;26.40;99.90
14008;DHT22;61651;45.508;12.232;2023-07-13T05:36:22;26.50;99.90
14008;DHT22;61651;45.508;12.232;2023-07-13T05:39:24;26.50;99.90
14008;DHT22;61651;45.508;12.232;2023-07-13T05:42:28;26.60;99.90
14008;DHT22;61651;45.508;12.232;2023-07-13T05:45:31;26.60;99.90
14008;DHT22;61651;45.508;12.232;2023-07-13T05:48:33;26.60;99.90
14008;DHT22;61651;45.508;12.232;2023-07-13T05:51:35;26.70;99.90
14008;DHT22;61651;45.508;12.232;2023-07-13T05:54:37;26.80;99.90
14008;DHT22;61651;45.508;12.232;2023-07-13T05:57:41;26.90;99.90
14008;DHT22;61651;45.508;12.232;2023-07-13T06:00:43;27.00;99.90
14008;DHT22;61651;45.508;12.232;2023-07-13T06:03:45;27.00;99.90
14008;DHT22;61651;45.508;12.232;2023-07-13T06:06:47;27.00;99.90
14008;DHT22;61651;45.508;12.232;2023-07-13T06:09:49;27.00;99.90
14008;DHT22;61651;45.508;12.232;2023-07-13T06:12:53;27.00;99.90
14008;DHT22;61651;45.508;12.232;2023-07-13T06:15:55;27.00;99.90
14008;DHT22;61651;45.508;12.232;2023-07-13T06:18:57;27.00;99.90
14008;DHT22;61651;45.508;12.232;2023-07-13T06:21:59;27.00;99.90
14008;DHT22;61651;45.508;12.232;2023-07-13T06:25:01;27.10;99.90
14008;DHT22;61651;45.508;12.232;2023-07-13T06:28:05;27.30;99.90
14008;DHT22;61651;45.508;12.232;2023-07-13T06:31:08;27.30;99.90
14008;DHT22;61651;45.508;12.232;2023-07-13T06:34:10;27.40;99.90
14008;DHT22;61651;45.508;12.232;2023-07-13T06:37:12;27.50;99.90
14008;DHT22;61651;45.508;12.232;2023-07-13T06:40:14;27.60;99.90
14008;DHT22;61651;45.508;12.232;2023-07-13T06:43:17;27.70;99.90
14008;DHT22;61651;45.508;12.232;2023-07-13T06:46:21;27.80;99.90
14008;DHT22;61651;45.508;12.232;2023-07-13T06:49:24;27.90;99.90
14008;DHT22;61651;45.508;12.232;2023-07-13T06:52:26;28.00;99.90
14008;DHT22;61651;45.508;12.232;2023-07-13T06:55:28;27.90;99.90
14008;DHT22;61651;45.508;12.232;2023-07-13T06:58:33;28.00;99.90
14008;DHT22;61651;45.508;12.232;2023-07-13T07:01:35;28.10;99.90
14008;DHT22;61651;45.508;12.232;2023-07-13T07:04:37;28.20;99.90
14008;DHT22;61651;45.508;12.232;2023-07-13T07:07:39;28.20;99.90
14008;DHT22;61651;45.508;12.232;2023-07-13T07:10:42;28.30;99.90
14008;DHT22;61651;45.508;12.232;2023-07-13T07:13:45;28.40;99.90
14008;DHT22;61651;45.508;12.232;2023-07-13T07:16:47;28.30;99.90
14008;DHT22;61651;45.508;12.232;2023-07-13T07:19:49;28.40;99.90
14008;DHT22;61651;45.508;12.232;2023-07-13T07:22:51;28.40;99.90
14008;DHT22;61651;45.508;12.232;2023-07-13T07:25:53;28.50;99.90
14008;DHT22;61651;45.508;12.232;2023-07-13T07:28:57;28.50;99.90
14008;DHT22;61651;45.508;12.232;2023-07-13T07:31:59;28.60;99.90
14008;DHT22;61651;45.508;12.232;2023-07-13T07:35:01;28.60;99.90
14008;DHT22;61651;45.508;12.232;2023-07-13T07:38:03;28.50;99.90
14008;DHT22;61651;45.508;12.232;2023-07-13T07:41:05;28.50;99.90
14008;DHT22;61651;45.508;12.232;2023-07-13T07:44:09;28.50;99.90
14008;DHT22;61651;45.508;12.232;2023-07-13T07:47:11;28.50;99.90
14008;DHT22;61651;45.508;12.232;2023-07-13T07:50:13;28.60;99.90
14008;DHT22;61651;45.508;12.232;2023-07-13T07:53:15;28.60;99.90
14008;DHT22;61651;45.508;12.232;2023-07-13T07:56:17;28.60;99.90
14008;DHT22;61651;45.508;12.232;2023-07-13T07:59:21;28.60;99.90
14008;DHT22;61651;45.508;12.232;2023-07-13T08:02:23;28.70;99.90
14008;DHT22;61651;45.508;12.232;2023-07-13T08:05:26;28.70;99.90
14008;DHT22;61651;45.508;12.232;2023-07-13T08:08:28;28.80;99.90
14008;DHT22;61651;45.508;12.232;2023-07-13T08:11:30;28.90;99.90
14008;DHT22;61651;45.508;12.232;2023-07-13T08:14:33;28.80;99.90
14008;DHT22;61651;45.508;12.232;2023-07-13T08:17:35;28.80;99.90
14008;DHT22;61651;45.508;12.232;2023-07-13T08:20:38;28.50;99.90
14008;DHT22;61651;45.508;12.232;2023-07-13T08:23:40;28.50;99.90
14008;DHT22;61651;45.508;12.232;2023-07-13T08:26:42;28.50;99.90
14008;DHT22;61651;45.508;12.232;2023-07-13T08:29:47;28.60;99.90
14008;DHT22;61651;45.508;12.232;2023-07-13T08:32:49;28.70;99.90
14008;DHT22;61651;45.508;12.232;2023-07-13T08:35:51;28.70;99.90
14008;DHT22;61651;45.508;12.232;2023-07-13T08:38:53;28.60;99.90
14008;DHT22;61651;45.508;12.232;2023-07-13T08:41:59;28.50;99.90
14008;DHT22;61651;45.508;12.232;2023-07-13T08:45:14;28.50;99.90
14008;DHT22;61651;45.508;12.232;2023-07-13T08:48:20;28.50;99.90
14008;DHT22;61651;45.508;12.232;2023-07-13T08:51:34;28.60;99.90
14008;DHT22;61651;45.508;12.232;2023-07-13T08:54:41;28.70;99.90
14008;DHT22;61651;45.508;12.232;2023-07-13T08:57:48;28.70;99.90
14008;DHT22;61651;45.508;12.232;2023-07-13T09:01:01;28.70;99.90
14008;DHT22;61651;45.508;12.232;2023-07-13T09:04:08;28.80;99.90
14008;DHT22;61651;45.508;12.232;2023-07-13T09:07:18;28.70;99.90
14008;DHT22;61651;45.508;12.232;2023-07-13T09:10:28;28.60;99.90
14008;DHT22;61651;45.508;12.232;2023-07-13T09:13:35;28.60;99.90
14008;DHT22;61651;45.508;12.232;2023-07-13T09:16:41;28.60;99.90
14008;DHT22;61651;45.508;12.232;2023-07-13T09:19:47;28.70;99.90
14008;DHT22;61651;45.508;12.232;2023-07-13T09:22:51;28.70;99.90
14008;DHT22;61651;45.508;12.232;2023-07-13T09:26:00;28.60;99.90
14008;DHT22;61651;45.508;12.232;2023-07-13T09:29:12;28.60;99.90
14008;DHT22;61651;45.508;12.232;2023-07-13T09:32:18;28.30;99.90
14008;DHT22;61651;45.508;12.232;2023-07-13T09:35:26;28.30;99.90
14008;DHT22;61651;45.508;12.232;2023-07-13T09:38:30;28.40;99.90
14008;DHT22;61651;45.508;12.232;2023-07-13T09:41:38;28.40;99.90
14008;DHT22;61651;45.508;12.232;2023-07-13T09:44:52;28.40;99.90
14008;DHT22;61651;45.508;12.232;2023-07-13T09:48:04;28.50;99.90
14008;DHT22;61651;45.508;12.232;2023-07-13T09:51:13;28.40;99.90
14008;DHT22;61651;45.508;12.232;2023-07-13T09:54:20;28.40;99.90
14008;DHT22;61651;45.508;12.232;2023-07-13T09:57:26;28.50;99.90
14008;DHT22;61651;45.508;12.232;2023-07-13T10:00:29;28.50;99.90
14008;DHT22;61651;45.508;12.232;2023-07-13T10:03:34;28.50;99.90
14008;DHT22;61651;45.508;12.232;2023-07-13T10:06:39;28.40;99.90
14008;DHT22;61651;45.508;12.232;2023-07-13T10:09:43;28.40;99.90
14008;DHT22;61651;45.508;12.232;2023-07-13T10:12:45;28.40;99.90
14008;DHT22;61651;45.508;12.232;2023-07-13T10:15:47;28.30;99.90
14008;DHT22;61651;45.508;12.232;2023-07-13T10:18:55;28.30;99.90
14008;DHT22;61651;45.508;12.232;2023-07-13T10:21:59;28.30;99.90
14008;DHT22;61651;45.508;12.232;2023-07-13T10:25:02;28.40;99.90
14008;DHT22;61651;45.508;12.232;2023-07-13T10:28:11;28.40;99.90
14008;DHT22;61651;45.508;12.232;2023-07-13T10:31:16;28.40;99.90
14008;DHT22;61651;45.508;12.232;2023-07-13T10:34:20;28.30;99.90
14008;DHT22;61651;45.508;12.232;2023-07-13T10:37:27;28.30;99.90
14008;DHT22;61651;45.508;12.232;2023-07-13T10:40:33;28.40;99.90
14008;DHT22;61651;45.508;12.232;2023-07-13T10:43:41;28.30;99.90
14008;DHT22;61651;45.508;12.232;2023-07-13T10:46:44;28.30;99.90
14008;DHT22;61651;45.508;12.232;2023-07-13T10:49:55;28.50;99.90
14008;DHT22;61651;45.508;12.232;2023-07-13T10:53:03;28.50;99.90
14008;DHT22;61651;45.508;12.232;2023-07-13T10:56:23;28.50;99.90
14008;DHT22;61651;45.508;12.232;2023-07-13T10:59:26;28.60;99.90
14008;DHT22;61651;45.508;12.232;2023-07-13T11:02:30;28.70;99.90
14008;DHT22;61651;45.508;12.232;2023-07-13T11:05:34;28.80;99.90
14008;DHT22;61651;45.508;12.232;2023-07-13T11:08:37;28.80;99.90
14008;DHT22;61651;45.508;12.232;2023-07-13T11:11:40;28.60;99.90
14008;DHT22;61651;45.508;12.232;2023-07-13T11:14:43;28.40;99.90
14008;DHT22;61651;45.508;12.232;2023-07-13T11:18:04;28.70;99.90
14008;DHT22;61651;45.508;12.232;2023-07-13T11:21:15;28.90;99.90
14008;DHT22;61651;45.508;12.232;2023-07-13T11:24:17;28.90;99.90
14008;DHT22;61651;45.508;12.232;2023-07-13T11:27:35;29.10;99.90
14008;DHT22;61651;45.508;12.232;2023-07-13T11:30:39;29.60;99.90
14008;DHT22;61651;45.508;12.232;2023-07-13T11:33:56;30.10;99.90
14008;DHT22;61651;45.508;12.232;2023-07-13T11:37:01;30.20;99.90
14008;DHT22;61651;45.508;12.232;2023-07-13T11:40:05;30.50;99.90
14008;DHT22;61651;45.508;12.232;2023-07-13T11:43:07;31.10;99.90
14008;DHT22;61651;45.508;12.232;2023-07-13T11:46:14;31.30;99.90
14008;DHT22;61651;45.508;12.232;2023-07-13T11:49:18;31.50;99.90
14008;DHT22;61651;45.508;12.232;2023-07-13T11:52:24;31.60;99.90
14008;DHT22;61651;45.508;12.232;2023-07-13T11:55:29;31.80;99.90
14008;DHT22;61651;45.508;12.232;2023-07-13T11:58:31;31.90;99.90
14008;DHT22;61651;45.508;12.232;2023-07-13T12:01:45;32.40;99.90
14008;DHT22;61651;45.508;12.232;2023-07-13T12:04:49;32.80;99.90
14008;DHT22;61651;45.508;12.232;2023-07-13T12:07:54;33.10;99.90
14008;DHT22;61651;45.508;12.232;2023-07-13T12:10:58;33.60;99.90
14008;DHT22;61651;45.508;12.232;2023-07-13T12:14:00;34.10;99.90
14008;DHT22;61651;45.508;12.232;2023-07-13T12:17:09;34.30;99.90
14008;DHT22;61651;45.508;12.232;2023-07-13T12:20:20;34.60;99.90
14008;DHT22;61651;45.508;12.232;2023-07-13T12:23:30;34.80;99.90
14008;DHT22;61651;45.508;12.232;2023-07-13T12:26:33;34.90;99.90
14008;DHT22;61651;45.508;12.232;2023-07-13T12:29:35;34.90;99.90
14008;DHT22;61651;45.508;12.232;2023-07-13T12:32:37;34.20;99.90
14008;DHT22;61651;45.508;12.232;2023-07-13T12:35:41;34.10;99.90
14008;DHT22;61651;45.508;12.232;2023-07-13T12:38:46;34.50;99.90
14008;DHT22;61651;45.508;12.232;2023-07-13T12:41:50;34.60;99.90
14008;DHT22;61651;45.508;12.232;2023-07-13T12:44:53;35.00;99.90
14008;DHT22;61651;45.508;12.232;2023-07-13T12:47:58;35.30;99.90
14008;DHT22;61651;45.508;12.232;2023-07-13T12:51:01;35.60;99.90
14008;DHT22;61651;45.508;12.232;2023-07-13T12:54:13;35.80;99.90
14008;DHT22;61651;45.508;12.232;2023-07-13T12:57:17;36.00;99.90
14008;DHT22;61651;45.508;12.232;2023-07-13T13:00:25;36.30;99.90
14008;DHT22;61651;45.508;12.232;2023-07-13T13:03:31;36.50;99.90
14008;DHT22;61651;45.508;12.232;2023-07-13T13:06:34;36.60;99.90
14008;DHT22;61651;45.508;12.232;2023-07-13T13:09:39;36.60;99.90
14008;DHT22;61651;45.508;12.232;2023-07-13T13:12:41;36.80;99.90
14008;DHT22;61651;45.508;12.232;2023-07-13T13:15:44;36.70;99.90
14008;DHT22;61651;45.508;12.232;2023-07-13T13:18:46;37.10;99.90
14008;DHT22;61651;45.508;12.232;2023-07-13T13:21:49;37.20;99.90
14008;DHT22;61651;45.508;12.232;2023-07-13T13:24:54;37.50;99.90
14008;DHT22;61651;45.508;12.232;2023-07-13T13:27:56;37.70;99.90
14008;DHT22;61651;45.508;12.232;2023-07-13T13:30:58;37.80;99.90
14008;DHT22;61651;45.508;12.232;2023-07-13T13:34:00;37.50;99.90
14008;DHT22;61651;45.508;12.232;2023-07-13T13:37:03;37.10;99.90
14008;DHT22;61651;45.508;12.232;2023-07-13T13:40:14;36.60;99.90
14008;DHT22;61651;45.508;12.232;2023-07-13T13:43:17;36.10;99.90
14008;DHT22;61651;45.508;12.232;2023-07-13T13:46:21;36.20;99.90
14008;DHT22;61651;45.508;12.232;2023-07-13T13:49:27;36.70;99.90
14008;DHT22;61651;45.508;12.232;2023-07-13T13:52:29;36.90;99.90
14008;DHT22;61651;45.508;12.232;2023-07-13T13:55:34;36.00;99.90
14008;DHT22;61651;45.508;12.232;2023-07-13T13:58:36;36.20;99.90
14008;DHT22;61651;45.508;12.232;2023-07-13T14:01:39;37.00;99.90
14008;DHT22;61651;45.508;12.232;2023-07-13T14:04:43;37.30;99.90
14008;DHT22;61651;45.508;12.232;2023-07-13T14:07:45;37.10;99.90
14008;DHT22;61651;45.508;12.232;2023-07-13T14:10:51;36.60;99.90
14008;DHT22;61651;45.508;12.232;2023-07-13T14:13:56;36.20;99.90
14008;DHT22;61651;45.508;12.232;2023-07-13T14:16:59;35.80;99.90
14008;DHT22;61651;45.508;12.232;2023-07-13T14:20:01;35.50;99.90
14008;DHT22;61651;45.508;12.232;2023-07-13T14:23:05;35.20;99.90
14008;DHT22;61651;45.508;12.232;2023-07-13T14:26:14;35.10;99.90
14008;DHT22;61651;45.508;12.232;2023-07-13T14:29:18;35.10;99.90
14008;DHT22;61651;45.508;12.232;2023-07-13T14:32:22;34.90;99.90
14008;DHT22;61651;45.508;12.232;2023-07-13T14:35:25;34.80;99.90
14008;DHT22;61651;45.508;12.232;2023-07-13T14:38:28;34.50;99.90
14008;DHT22;61651;45.508;12.232;2023-07-13T14:41:31;34.30;99.90
14008;DHT22;61651;45.508;12.232;2023-07-13T14:44:33;34.00;99.90
14008;DHT22;61651;45.508;12.232;2023-07-13T14:47:35;33.80;99.90
14008;DHT22;61651;45.508;12.232;2023-07-13T14:50:37;33.80;99.90
14008;DHT22;61651;45.508;12.232;2023-07-13T14:53:39;33.50;99.90
14008;DHT22;61651;45.508;12.232;2023-07-13T14:56:43;33.60;99.90
14008;DHT22;61651;45.508;12.232;2023-07-13T14:59:45;33.60;99.90
14008;DHT22;61651;45.508;12.232;2023-07-13T15:02:49;33.50;99.90
14008;DHT22;61651;45.508;12.232;2023-07-13T15:05:52;33.40;99.90
14008;DHT22;61651;45.508;12.232;2023-07-13T15:08:54;33.40;99.90
14008;DHT22;61651;45.508;12.232;2023-07-13T15:11:58;33.40;99.90
14008;DHT22;61651;45.508;12.232;2023-07-13T15:15:00;33.50;99.90
14008;DHT22;61651;45.508;12.232;2023-07-13T15:18:02;33.40;99.90
14008;DHT22;61651;45.508;12.232;2023-07-13T15:21:04;33.40;99.90
14008;DHT22;61651;45.508;12.232;2023-07-13T15:24:09;33.40;99.90
14008;DHT22;61651;45.508;12.232;2023-07-13T15:27:13;33.20;99.90
14008;DHT22;61651;45.508;12.232;2023-07-13T15:30:15;33.10;99.90
14008;DHT22;61651;45.508;12.232;2023-07-13T15:33:21;32.90;99.90
14008;DHT22;61651;45.508;12.232;2023-07-13T15:36:25;32.60;99.90
14008;DHT22;61651;45.508;12.232;2023-07-13T15:39:27;32.50;99.90
14008;DHT22;61651;45.508;12.232;2023-07-13T15:42:33;32.50;99.90
14008;DHT22;61651;45.508;12.232;2023-07-13T15:45:36;32.20;99.90
14008;DHT22;61651;45.508;12.232;2023-07-13T15:48:39;32.20;99.90
14008;DHT22;61651;45.508;12.232;2023-07-13T15:51:41;32.00;99.90
14008;DHT22;61651;45.508;12.232;2023-07-13T15:54:43;31.90;99.90
14008;DHT22;61651;45.508;12.232;2023-07-13T15:57:49;31.90;99.90
14008;DHT22;61651;45.508;12.232;2023-07-13T16:00:51;31.90;99.90
14008;DHT22;61651;45.508;12.232;2023-07-13T16:03:53;31.80;99.90
14008;DHT22;61651;45.508;12.232;2023-07-13T16:06:55;31.60;99.90
14008;DHT22;61651;45.508;12.232;2023-07-13T16:09:57;31.60;99.90
14008;DHT22;61651;45.508;12.232;2023-07-13T16:13:01;31.50;99.90
14008;DHT22;61651;45.508;12.232;2023-07-13T16:16:09;31.30;99.90
14008;DHT22;61651;45.508;12.232;2023-07-13T16:19:11;31.40;99.90
14008;DHT22;61651;45.508;12.232;2023-07-13T16:22:15;31.40;99.90
14008;DHT22;61651;45.508;12.232;2023-07-13T16:25:19;31.50;99.90
14008;DHT22;61651;45.508;12.232;2023-07-13T16:28:23;31.60;99.90
14008;DHT22;61651;45.508;12.232;2023-07-13T16:31:32;31.80;99.90
14008;DHT22;61651;45.508;12.232;2023-07-13T16:34:36;32.00;99.90
14008;DHT22;61651;45.508;12.232;2023-07-13T16:37:42;32.10;99.90
14008;DHT22;61651;45.508;12.232;2023-07-13T16:40:45;32.10;99.90
14008;DHT22;61651;45.508;12.232;2023-07-13T16:43:49;32.10;99.90
14008;DHT22;61651;45.508;12.232;2023-07-13T16:46:53;32.10;99.90
14008;DHT22;61651;45.508;12.232;2023-07-13T16:49:57;32.10;99.90
14008;DHT22;61651;45.508;12.232;2023-07-13T16:52:59;32.10;99.90
14008;DHT22;61651;45.508;12.232;2023-07-13T16:56:03;31.90;99.90
14008;DHT22;61651;45.508;12.232;2023-07-13T16:59:13;32.00;99.90
14008;DHT22;61651;45.508;12.232;2023-07-13T17:02:31;31.90;99.90
14008;DHT22;61651;45.508;12.232;2023-07-13T17:05:36;31.70;99.90
14008;DHT22;61651;45.508;12.232;2023-07-13T17:08:41;31.70;99.90
14008;DHT22;61651;45.508;12.232;2023-07-13T17:11:43;31.70;99.90
14008;DHT22;61651;45.508;12.232;2023-07-13T17:14:48;31.60;99.90
14008;DHT22;61651;45.508;12.232;2023-07-13T17:17:50;31.50;99.90
14008;DHT22;61651;45.508;12.232;2023-07-13T17:20:52;31.40;99.90
14008;DHT22;61651;45.508;12.232;2023-07-13T17:23:55;31.30;99.90
14008;DHT22;61651;45.508;12.232;2023-07-13T17:26:57;31.00;99.90
14008;DHT22;61651;45.508;12.232;2023-07-13T17:30:00;30.90;99.90
14008;DHT22;61651;45.508;12.232;2023-07-13T17:33:04;30.80;99.90
14008;DHT22;61651;45.508;12.232;2023-07-13T17:36:11;30.80;99.90
14008;DHT22;61651;45.508;12.232;2023-07-13T17:39:16;30.90;99.90
14008;DHT22;61651;45.508;12.232;2023-07-13T17:42:18;30.90;99.90
14008;DHT22;61651;45.508;12.232;2023-07-13T17:45:28;30.90;99.90
14008;DHT22;61651;45.508;12.232;2023-07-13T17:48:30;30.90;99.90
14008;DHT22;61651;45.508;12.232;2023-07-13T17:51:32;30.80;99.90
14008;DHT22;61651;45.508;12.232;2023-07-13T17:54:36;30.80;99.90
14008;DHT22;61651;45.508;12.232;2023-07-13T17:57:38;30.70;99.90
14008;DHT22;61651;45.508;12.232;2023-07-13T18:00:43;30.60;99.90
14008;DHT22;61651;45.508;12.232;2023-07-13T18:03:49;30.50;99.90
14008;DHT22;61651;45.508;12.232;2023-07-13T18:06:52;30.50;99.90
14008;DHT22;61651;45.508;12.232;2023-07-13T18:09:56;30.50;99.90
14008;DHT22;61651;45.508;12.232;2023-07-13T18:12:58;30.40;99.90
14008;DHT22;61651;45.508;12.232;2023-07-13T18:16:02;30.30;99.90
14008;DHT22;61651;45.508;12.232;2023-07-13T18:19:06;30.30;99.90
14008;DHT22;61651;45.508;12.232;2023-07-13T18:22:18;30.10;99.90
14008;DHT22;61651;45.508;12.232;2023-07-13T18:25:22;30.00;99.90
14008;DHT22;61651;45.508;12.232;2023-07-13T18:28:25;30.00;99.90
14008;DHT22;61651;45.508;12.232;2023-07-13T18:31:32;30.00;99.90
14008;DHT22;61651;45.508;12.232;2023-07-13T18:34:38;30.00;99.90
14008;DHT22;61651;45.508;12.232;2023-07-13T18:37:43;30.00;99.90
14008;DHT22;61651;45.508;12.232;2023-07-13T18:40:46;30.00;99.90
14008;DHT22;61651;45.508;12.232;2023-07-13T18:43:49;29.90;99.90
14008;DHT22;61651;45.508;12.232;2023-07-13T18:46:54;29.90;99.90
14008;DHT22;61651;45.508;12.232;2023-07-13T18:49:57;29.90;99.90
14008;DHT22;61651;45.508;12.232;2023-07-13T18:52:59;29.80;99.90
14008;DHT22;61651;45.508;12.232;2023-07-13T18:56:02;29.70;99.90
14008;DHT22;61651;45.508;12.232;2023-07-13T18:59:06;29.60;99.90
14008;DHT22;61651;45.508;12.232;2023-07-13T19:02:14;29.50;99.90